Time;durP1;ratioP1;P1;durP2;ratioP2;P2;SDS_P1;SDS_P2;PMS_P1;PMS_P2;Temp;Humidity;BMP_temperature;BMP_pressure;BME280_temperature;BME280_humidity;BME280_pressure;Samples;Min_cycle;Max_cycle;Signal;HPM_P1;HPM_P2
2021/11/27 00:00:14;;;;;;;4.93;3.05;;;;;;;1.92;100.00;97928.38;4956920;28;20121;-65
2021/11/27 00:02:42;;;;;;;4.28;2.58;;;;;;;1.81;100.00;97931.41;4958922;28;20125;-65
2021/11/27 00:05:13;;;;;;;3.92;2.88;;;;;;;1.62;100.00;97927.47;4973096;28;20440;-65
2021/11/27 00:07:41;;;;;;;7.60;2.67;;;;;;;1.45;100.00;97918.88;4957878;28;21332;-65
2021/11/27 00:10:12;;;;;;;5.55;2.67;;;;;;;1.28;100.00;97924.25;4956295;28;20055;-65
2021/11/27 00:12:40;;;;;;;4.47;2.90;;;;;;;1.19;100.00;97922.66;4958605;28;20040;-65
2021/11/27 00:15:09;;;;;;;5.50;3.15;;;;;;;1.19;100.00;97923.47;4959851;28;20090;-65
2021/11/27 00:17:38;;;;;;;4.22;2.60;;;;;;;1.28;100.00;97926.88;4959622;28;20117;-66
2021/11/27 00:20:09;;;;;;;5.10;3.20;;;;;;;1.36;100.00;97932.09;4947937;28;20134;-65
2021/11/27 00:22:39;;;;;;;5.47;3.00;;;;;;;1.35;100.00;97927.81;4958763;28;20043;-65
2021/11/27 00:25:08;;;;;;;5.70;3.08;;;;;;;1.09;100.00;97927.31;4959266;28;20047;-65
2021/11/27 00:27:36;;;;;;;11.32;3.42;;;;;;;1.15;100.00;97930.06;4959328;28;20043;-65
2021/11/27 00:30:06;;;;;;;3.85;2.60;;;;;;;0.95;100.00;97932.31;4953679;28;20067;-65
2021/11/27 00:32:34;;;;;;;6.55;3.00;;;;;;;0.92;100.00;97927.41;4956244;28;20050;-65
2021/11/27 00:35:03;;;;;;;6.53;2.80;;;;;;;1.05;100.00;97929.47;4957784;28;20139;-65
2021/11/27 00:37:31;;;;;;;4.53;2.63;;;;;;;1.19;100.00;97925.28;4953956;28;20090;-65
2021/11/27 00:40:01;;;;;;;4.10;3.20;;;;;;;1.01;100.00;97925.56;4948489;28;20051;-65
2021/11/27 00:42:29;;;;;;;5.07;2.97;;;;;;;1.05;100.00;97926.84;4957988;28;20047;-64
2021/11/27 00:44:57;;;;;;;4.70;2.67;;;;;;;1.07;100.00;97924.06;4959537;28;20047;-65
2021/11/27 00:47:25;;;;;;;7.30;3.28;;;;;;;1.02;100.00;97916.66;4958856;28;20616;-65
2021/11/27 00:49:54;;;;;;;5.55;3.17;;;;;;;1.02;100.00;97917.50;4948359;28;20130;-62
2021/11/27 00:52:22;;;;;;;6.30;3.58;;;;;;;0.99;100.00;97917.00;4957524;28;20051;-65
2021/11/27 00:54:51;;;;;;;5.82;3.30;;;;;;;0.85;100.00;97916.78;4960425;28;20051;-65
2021/11/27 00:57:20;;;;;;;5.80;2.60;;;;;;;0.91;100.00;97915.25;4959140;28;20051;-65
2021/11/27 00:59:48;;;;;;;7.80;2.70;;;;;;;0.87;100.00;97921.03;4951393;28;20051;-63
2021/11/27 01:02:16;;;;;;;5.03;2.70;;;;;;;0.72;100.00;97915.69;4956634;28;20043;-65
2021/11/27 01:04:44;;;;;;;6.72;3.65;;;;;;;0.54;100.00;97908.88;4959056;28;20051;-65
2021/11/27 01:07:12;;;;;;;4.40;3.00;;;;;;;0.69;100.00;97903.69;4956885;28;20210;-65
2021/11/27 01:09:40;;;;;;;6.75;3.08;;;;;;;0.47;100.00;97905.28;4948160;28;20134;-62
2021/11/27 01:12:09;;;;;;;6.07;3.38;;;;;;;0.70;100.00;97905.34;4960006;28;20055;-65
2021/11/27 01:14:39;;;;;;;4.25;3.00;;;;;;;0.83;100.00;97912.66;4955045;28;20055;-65
2021/11/27 01:17:08;;;;;;;6.57;3.10;;;;;;;0.87;100.00;97906.09;4959439;28;20409;-65
2021/11/27 01:19:38;;;;;;;6.45;3.38;;;;;;;0.64;100.00;97909.47;4947359;28;20078;-65
2021/11/27 01:22:08;;;;;;;8.25;3.88;;;;;;;0.71;100.00;97907.00;4955340;28;20399;-65
2021/11/27 01:24:37;;;;;;;11.52;3.80;;;;;;;0.67;100.00;97909.13;4959065;28;20114;-65
2021/11/27 01:27:05;;;;;;;8.38;3.97;;;;;;;0.88;100.00;97910.34;4956294;28;20152;-65
2021/11/27 01:29:36;;;;;;;10.82;4.18;;;;;;;0.74;100.00;97909.25;4956118;28;20039;-65
2021/11/27 01:32:08;;;;;;;12.10;4.82;;;;;;;0.67;100.00;97903.06;4957866;28;20070;-65
2021/11/27 01:34:36;;;;;;;10.57;3.85;;;;;;;0.62;100.00;97890.41;4959045;28;20388;-66
2021/11/27 01:37:04;;;;;;;14.60;5.13;;;;;;;0.70;100.00;97897.47;4959655;28;20054;-65
2021/11/27 01:39:33;;;;;;;11.27;4.60;;;;;;;0.66;100.00;97899.59;4948976;28;20042;-65
2021/11/27 01:42:01;;;;;;;10.02;5.38;;;;;;;0.70;100.00;97896.66;4958850;28;20812;-66
2021/11/27 01:44:29;;;;;;;18.02;4.80;;;;;;;0.56;100.00;97896.38;4955383;28;20053;-65
2021/11/27 01:46:57;;;;;;;11.02;5.10;;;;;;;0.41;100.00;97896.28;4957997;28;20343;-63
2021/11/27 01:49:27;;;;;;;11.20;4.78;;;;;;;0.29;100.00;97895.78;4951773;28;20050;-64
2021/11/27 01:51:56;;;;;;;13.35;4.43;;;;;;;0.42;100.00;97894.44;4955230;28;20063;-66
2021/11/27 01:54:24;;;;;;;7.75;4.03;;;;;;;0.34;100.00;97905.78;4962653;28;20415;-65
2021/11/27 01:56:55;;;;;;;22.17;5.25;;;;;;;0.44;100.00;97902.97;4958681;28;20051;-65
2021/11/27 01:59:24;;;;;;;13.15;5.00;;;;;;;0.44;100.00;97901.19;4950363;28;20089;-66
2021/11/27 02:01:52;;;;;;;13.35;5.60;;;;;;;0.50;100.00;97897.88;4965278;28;20047;-66
2021/11/27 02:04:20;;;;;;;13.10;4.10;;;;;;;0.43;100.00;97896.09;4960393;28;20413;-65
2021/11/27 02:06:50;;;;;;;13.25;3.95;;;;;;;0.29;100.00;97901.06;4959883;28;20451;-66
2021/11/27 02:09:20;;;;;;;16.08;4.57;;;;;;;0.39;100.00;97900.84;4969261;28;20078;-65
2021/11/27 02:11:49;;;;;;;13.82;4.90;;;;;;;0.30;100.00;97900.06;4962410;28;20123;-65
2021/11/27 02:14:17;;;;;;;11.65;4.22;;;;;;;0.25;100.00;97905.00;4961020;28;20035;-65
2021/11/27 02:16:46;;;;;;;13.80;6.47;;;;;;;0.17;100.00;97905.00;4959208;28;20049;-65
2021/11/27 02:19:15;;;;;;;8.93;3.63;;;;;;;0.02;100.00;97906.72;4954277;28;20051;-66
2021/11/27 02:21:45;;;;;;;16.75;3.95;;;;;;;-0.04;100.00;97906.38;4961772;28;20371;-63
2021/11/27 02:24:13;;;;;;;12.13;4.80;;;;;;;-0.15;100.00;97906.72;4963226;28;20066;-63
2021/11/27 02:26:43;;;;;;;18.95;6.10;;;;;;;-0.13;100.00;97902.13;4962656;28;20125;-63
2021/11/27 02:29:13;;;;;;;12.35;5.95;;;;;;;-0.01;100.00;97906.03;4950613;28;20046;-65
2021/11/27 02:31:41;;;;;;;26.17;10.10;;;;;;;0.22;100.00;97909.78;4963058;28;20055;-65
2021/11/27 02:34:09;;;;;;;17.95;7.47;;;;;;;0.12;100.00;97902.09;4959542;28;20047;-65
2021/11/27 02:36:40;;;;;;;21.23;8.45;;;;;;;-0.07;100.00;97901.47;4959127;28;20062;-65
2021/11/27 02:39:11;;;;;;;18.38;8.00;;;;;;;-0.11;100.00;97896.72;4957038;28;20051;-65
2021/11/27 02:41:40;;;;;;;16.58;7.45;;;;;;;-0.01;100.00;97892.91;4961100;28;20474;-65
2021/11/27 02:44:09;;;;;;;18.77;6.82;;;;;;;-0.06;100.00;97890.00;4963644;28;20074;-65
2021/11/27 02:46:37;;;;;;;17.77;7.38;;;;;;;-0.11;100.00;97873.94;4957239;28;20051;-66
2021/11/27 02:49:06;;;;;;;20.08;6.75;;;;;;;-0.33;100.00;97877.22;4948823;28;20293;-65
2021/11/27 02:51:34;;;;;;;16.05;6.05;;;;;;;-0.37;100.00;97867.09;4959029;28;20043;-66
2021/11/27 02:54:04;;;;;;;19.85;5.45;;;;;;;-0.24;100.00;97873.59;4960732;28;20049;-65
2021/11/27 02:56:33;;;;;;;11.43;3.75;;;;;;;-0.24;100.00;97871.81;4960079;28;20051;-65
2021/11/27 02:59:10;;;;;;;12.27;4.28;;;;;;;-0.10;100.00;97870.31;4950125;28;20043;-65
2021/11/27 03:01:38;;;;;;;11.98;3.63;;;;;;;-0.14;100.00;97869.00;4963560;28;20448;-65
2021/11/27 03:04:07;;;;;;;22.23;3.72;;;;;;;-0.19;100.00;97871.31;4958029;28;20043;-65
2021/11/27 03:06:35;;;;;;;13.38;3.13;;;;;;;-0.25;100.00;97862.31;4956471;28;20046;-65
2021/11/27 03:09:05;;;;;;;13.98;3.63;;;;;;;-0.36;100.00;97860.81;4950361;28;20462;-65
2021/11/27 03:11:35;;;;;;;6.65;3.00;;;;;;;-0.28;100.00;97865.25;4961227;28;20178;-65
2021/11/27 03:14:04;;;;;;;10.32;3.55;;;;;;;-0.35;100.00;97862.47;4965228;28;20131;-65
2021/11/27 03:16:33;;;;;;;11.10;3.13;;;;;;;-0.41;100.00;97863.16;4960257;28;20051;-65
2021/11/27 03:19:22;;;;;;;12.30;3.35;;;;;;;-0.30;100.00;97863.78;4951553;28;20503;-65
2021/11/27 03:21:50;;;;;;;16.35;3.42;;;;;;;-0.54;100.00;97862.81;4958212;28;20129;-65
2021/11/27 03:24:18;;;;;;;7.80;2.65;;;;;;;-0.48;100.00;97849.06;4956337;28;20054;-65
2021/11/27 03:26:47;;;;;;;6.82;3.22;;;;;;;-0.38;100.00;97851.50;4962250;28;20391;-65
2021/11/27 03:29:15;;;;;;;12.70;3.42;;;;;;;-0.38;100.00;97847.06;4951989;28;20047;-65
2021/11/27 03:31:43;;;;;;;13.65;3.63;;;;;;;-0.34;100.00;97839.72;4960484;28;20477;-65
2021/11/27 03:34:11;;;;;;;8.05;3.00;;;;;;;-0.39;100.00;97834.94;4963727;28;20085;-65
2021/11/27 03:36:39;;;;;;;10.02;3.13;;;;;;;-0.44;100.00;97829.41;4958202;28;20043;-66
2021/11/27 03:39:08;;;;;;;9.35;3.97;;;;;;;-0.52;100.00;97829.41;4950279;28;20039;-65
2021/11/27 03:41:36;;;;;;;8.27;3.20;;;;;;;-0.52;100.00;97824.97;4962057;28;20043;-66
2021/11/27 03:44:06;;;;;;;13.95;4.18;;;;;;;-0.58;100.00;97823.00;4961619;28;20039;-65
2021/11/27 03:46:34;;;;;;;12.77;3.70;;;;;;;-0.64;100.00;97828.09;4956221;28;20054;-64
2021/11/27 03:49:02;;;;;;;14.55;4.28;;;;;;;-0.68;100.00;97830.22;4949540;28;20051;-65
2021/11/27 03:51:30;;;;;;;10.15;4.10;;;;;;;-0.80;100.00;97829.72;4959368;28;20061;-65
2021/11/27 03:53:59;;;;;;;10.02;4.38;;;;;;;-1.00;100.00;97825.78;4960413;28;20387;-65
2021/11/27 03:56:29;;;;;;;11.10;5.18;;;;;;;-0.99;100.00;97828.25;4959548;28;20042;-65
2021/11/27 03:58:59;;;;;;;13.68;4.70;;;;;;;-1.06;100.00;97833.31;4952745;28;20146;-65
2021/11/27 04:01:29;;;;;;;20.40;5.25;;;;;;;-1.03;100.00;97829.56;4957449;28;20042;-65
2021/11/27 04:03:59;;;;;;;16.70;4.97;;;;;;;-1.04;100.00;97835.75;4963736;28;20042;-64
2021/11/27 04:06:27;;;;;;;14.13;5.65;;;;;;;-1.09;100.00;97838.88;4958525;28;20047;-64
2021/11/27 04:08:58;;;;;;;13.85;5.10;;;;;;;-1.21;100.00;97851.44;4947857;28;20031;-64
2021/11/27 04:11:26;;;;;;;15.77;5.80;;;;;;;-1.23;100.00;97866.50;4961518;28;20047;-64
2021/11/27 04:13:54;;;;;;;17.27;5.57;;;;;;;-1.10;100.00;97858.19;4958056;28;20047;-64
2021/11/27 04:16:22;;;;;;;16.70;6.03;;;;;;;-1.01;100.00;97858.19;4957806;28;20081;-64
2021/11/27 04:18:52;;;;;;;12.48;6.35;;;;;;;-0.95;100.00;97862.78;4951712;28;20054;-64
2021/11/27 04:21:20;;;;;;;20.95;6.53;;;;;;;-1.06;100.00;97869.97;4954828;28;20138;-64
2021/11/27 04:23:49;;;;;;;23.58;6.90;;;;;;;-1.17;100.00;97862.44;4960022;28;20046;-65
2021/11/27 04:26:18;;;;;;;17.38;5.55;;;;;;;-1.40;100.00;97867.44;4958928;28;20043;-64
2021/11/27 04:28:46;;;;;;;10.38;5.20;;;;;;;-1.49;100.00;97866.59;4953951;28;20051;-65
2021/11/27 04:31:17;;;;;;;16.98;5.93;;;;;;;-1.36;100.00;97867.94;4974309;28;20046;-65
2021/11/27 04:33:47;;;;;;;14.88;5.95;;;;;;;-1.24;100.00;97877.16;4959121;28;20043;-65
2021/11/27 04:36:17;;;;;;;13.85;5.80;;;;;;;-1.16;100.00;97876.34;4958182;28;20053;-65
2021/11/27 04:38:45;;;;;;;16.70;6.15;;;;;;;-1.17;100.00;97882.56;4944644;28;20090;-65
2021/11/27 04:41:14;;;;;;;21.35;6.93;;;;;;;-1.37;100.00;97889.88;4960028;28;20118;-65
2021/11/27 04:43:42;;;;;;;16.38;6.22;;;;;;;-1.37;100.00;97887.25;4961109;28;20053;-65
2021/11/27 04:46:10;;;;;;;12.75;6.95;;;;;;;-1.21;100.00;97882.06;4958082;28;20728;-65
2021/11/27 04:48:38;;;;;;;12.27;5.82;;;;;;;-1.13;100.00;97883.91;4954727;28;20055;-65
2021/11/27 04:51:06;;;;;;;15.60;5.35;;;;;;;-1.08;100.00;97881.59;4954952;28;20066;-65
2021/11/27 04:53:37;;;;;;;12.07;5.50;;;;;;;-1.00;100.00;97886.06;4961987;28;20047;-65
2021/11/27 04:56:06;;;;;;;17.15;6.50;;;;;;;-0.97;100.00;97890.97;4960431;28;20042;-65
2021/11/27 04:58:34;;;;;;;18.13;5.63;;;;;;;-0.92;100.00;97892.13;4945605;28;20596;-65
2021/11/27 05:01:02;;;;;;;15.88;6.60;;;;;;;-0.95;100.00;97891.59;4960413;28;20054;-65
2021/11/27 05:03:31;;;;;;;12.02;5.70;;;;;;;-0.89;100.00;97896.22;4957930;28;20050;-65
2021/11/27 05:05:59;;;;;;;11.85;5.57;;;;;;;-0.91;100.00;97891.16;4958412;28;20392;-65
2021/11/27 05:08:27;;;;;;;16.95;5.68;;;;;;;-0.95;100.00;97891.59;4949485;28;20054;-65
2021/11/27 05:10:56;;;;;;;16.77;6.22;;;;;;;-1.02;100.00;97894.06;4958550;28;20517;-65
2021/11/27 05:13:25;;;;;;;14.73;5.13;;;;;;;-1.02;100.00;97891.44;4959812;28;20102;-65
2021/11/27 05:15:53;;;;;;;12.48;5.40;;;;;;;-0.99;100.00;97898.97;4954536;28;20047;-65
2021/11/27 05:18:21;;;;;;;15.95;6.35;;;;;;;-1.04;100.00;97893.41;4947812;28;20065;-65
2021/11/27 05:20:49;;;;;;;10.60;4.60;;;;;;;-1.16;100.00;97886.81;4960533;28;20423;-65
2021/11/27 05:23:18;;;;;;;15.77;4.95;;;;;;;-1.30;100.00;97896.13;4961909;28;20053;-65
2021/11/27 05:25:46;;;;;;;15.95;6.00;;;;;;;-1.35;100.00;97899.19;4958261;28;20039;-65
2021/11/27 05:28:15;;;;;;;12.52;4.68;;;;;;;-1.36;100.00;97894.13;4945292;28;22262;-66
2021/11/27 05:30:43;;;;;;;11.05;5.18;;;;;;;-1.15;100.00;97899.75;4964414;28;20054;-65
2021/11/27 05:33:15;;;;;;;12.55;3.90;;;;;;;-0.92;100.00;97896.53;4962076;28;20055;-65
2021/11/27 05:35:44;;;;;;;7.95;3.92;;;;;;;-0.80;100.00;97900.47;4961030;28;20094;-65
2021/11/27 05:38:12;;;;;;;17.42;5.00;;;;;;;-0.80;100.00;97908.34;4952872;28;20047;-65
2021/11/27 05:40:45;;;;;;;16.17;4.70;;;;;;;-0.88;100.00;97910.94;4963347;28;20047;-65
2021/11/27 05:43:14;;;;;;;14.75;5.00;;;;;;;-0.92;100.00;97909.63;4962234;28;20050;-65
2021/11/27 05:45:42;;;;;;;11.63;5.32;;;;;;;-1.03;100.00;97913.38;4959652;28;20051;-65
2021/11/27 05:48:10;;;;;;;9.63;4.25;;;;;;;-0.92;100.00;97912.25;4950798;28;20051;-65
2021/11/27 05:50:38;;;;;;;12.68;5.32;;;;;;;-0.81;100.00;97909.31;4960515;28;20062;-65
2021/11/27 05:53:07;;;;;;;11.68;4.80;;;;;;;-0.84;100.00;97911.44;4957626;28;20053;-66
2021/11/27 05:55:35;;;;;;;10.77;4.40;;;;;;;-0.74;100.00;97912.94;4965053;28;20435;-65
2021/11/27 05:58:03;;;;;;;11.00;4.32;;;;;;;-0.78;100.00;97914.25;4951380;28;20052;-65
2021/11/27 06:00:33;;;;;;;14.77;5.15;;;;;;;-0.77;100.00;97920.31;4962370;28;20042;-65
2021/11/27 06:03:01;;;;;;;9.10;4.40;;;;;;;-0.91;100.00;97927.81;4962335;28;20038;-65
2021/11/27 06:05:29;;;;;;;17.83;6.30;;;;;;;-0.94;100.00;97924.69;4961996;28;20317;-65
2021/11/27 06:07:58;;;;;;;10.43;4.72;;;;;;;-1.00;100.00;97923.53;4958829;28;20428;-64
2021/11/27 06:10:27;;;;;;;12.20;4.53;;;;;;;-0.87;100.00;97936.97;4958814;28;20043;-65
2021/11/27 06:12:55;;;;;;;14.13;5.65;;;;;;;-0.89;100.00;97938.16;4962842;28;20051;-66
2021/11/27 06:15:23;;;;;;;13.63;5.68;;;;;;;-1.05;100.00;97946.75;4957785;28;20066;-66
2021/11/27 06:17:53;;;;;;;11.02;5.30;;;;;;;-1.22;100.00;97945.88;4956415;28;20239;-66
2021/11/27 06:20:22;;;;;;;12.63;4.95;;;;;;;-1.10;100.00;97947.25;4959925;28;20331;-66
2021/11/27 06:22:49;;;;;;;11.48;5.18;;;;;;;-1.15;100.00;97953.94;4960711;28;20100;-66
2021/11/27 06:25:24;;;;;;;16.85;5.00;;;;;;;-1.11;100.00;97955.25;4961764;28;20118;-66
2021/11/27 06:27:52;;;;;;;16.88;5.63;;;;;;;-0.84;100.00;97956.81;4960710;28;20062;-66
2021/11/27 06:30:20;;;;;;;16.75;5.82;;;;;;;-0.74;100.00;97972.41;4950553;28;20054;-66
2021/11/27 06:32:49;;;;;;;14.93;6.80;;;;;;;-0.62;100.00;97970.31;4957544;28;20043;-65
2021/11/27 06:35:18;;;;;;;22.05;7.30;;;;;;;-0.56;100.00;97967.03;4956123;28;20046;-65
2021/11/27 06:37:46;;;;;;;19.88;7.45;;;;;;;-0.55;100.00;97971.31;4956312;28;20046;-65
2021/11/27 06:40:14;;;;;;;8.85;4.82;;;;;;;-0.54;100.00;97976.38;4952771;28;20062;-65
2021/11/27 06:42:42;;;;;;;13.77;4.35;;;;;;;-0.54;100.00;97980.78;4959705;28;20432;-65
2021/11/27 06:45:11;;;;;;;12.23;5.28;;;;;;;-0.50;100.00;97982.09;4963926;28;20057;-65
2021/11/27 06:47:39;;;;;;;10.52;4.10;;;;;;;-0.48;100.00;97979.31;4955651;28;20055;-65
2021/11/27 06:50:09;;;;;;;19.13;7.50;;;;;;;-0.40;100.00;97989.81;4946562;28;20051;-65
2021/11/27 06:52:38;;;;;;;16.75;7.00;;;;;;;-0.40;100.00;97989.81;4955921;28;20054;-65
2021/11/27 06:55:07;;;;;;;19.05;6.30;;;;;;;-0.40;100.00;97989.81;4958259;28;20059;-65
2021/11/27 06:57:35;;;;;;;14.82;6.10;;;;;;;-0.40;100.00;97998.53;4956229;28;20435;-65
2021/11/27 07:00:04;;;;;;;16.45;5.45;;;;;;;-0.39;100.00;98001.97;4955811;28;20043;-65
2021/11/27 07:02:32;;;;;;;14.35;4.90;;;;;;;-0.40;100.00;98002.94;4958467;28;20049;-65
2021/11/27 07:05:00;;;;;;;10.80;4.80;;;;;;;-0.44;100.00;98002.44;4961599;28;20047;-65
2021/11/27 07:07:28;;;;;;;10.88;4.88;;;;;;;-0.38;100.00;98008.84;4955192;28;20412;-65
2021/11/27 07:09:57;;;;;;;12.50;5.07;;;;;;;-0.35;100.00;98022.44;4945576;28;20415;-65
2021/11/27 07:12:26;;;;;;;11.10;5.20;;;;;;;-0.36;100.00;98030.47;4957250;28;20043;-65
2021/11/27 07:14:54;;;;;;;9.73;4.97;;;;;;;-0.35;100.00;98026.88;4959627;28;20053;-65
2021/11/27 07:17:22;;;;;;;40.63;13.45;;;;;;;-0.38;100.00;98030.66;4958458;28;20065;-65
2021/11/27 07:19:50;;;;;;;63.88;19.23;;;;;;;-0.28;100.00;98041.00;4945053;28;20091;-67
2021/11/27 07:22:18;;;;;;;34.60;12.98;;;;;;;-0.29;100.00;98041.16;4959673;28;20046;-68
2021/11/27 07:24:46;;;;;;;15.95;6.63;;;;;;;-0.30;100.00;98042.94;4957842;28;20043;-68
2021/11/27 07:27:15;;;;;;;18.70;6.47;;;;;;;-0.17;100.00;98039.88;4961776;28;20070;-66
2021/11/27 07:29:43;;;;;;;16.65;5.82;;;;;;;-0.09;100.00;98050.34;4955173;28;20035;-63
2021/11/27 07:32:11;;;;;;;25.70;10.07;;;;;;;-0.06;100.00;98047.41;4960312;28;20046;-64
2021/11/27 07:34:39;;;;;;;26.27;11.05;;;;;;;-0.05;100.00;98059.53;4957626;28;20053;-64
2021/11/27 07:37:07;;;;;;;20.63;9.02;;;;;;;-0.09;100.00;98060.84;4958568;28;20431;-65
2021/11/27 07:39:38;;;;;;;15.93;5.47;;;;;;;-0.08;100.00;98067.72;4949180;28;20102;-66
2021/11/27 07:42:07;;;;;;;13.68;5.75;;;;;;;-0.09;100.00;98079.19;4957814;28;20047;-65
2021/11/27 07:44:36;;;;;;;16.20;5.95;;;;;;;-0.06;100.00;98081.53;4958528;28;20156;-66
2021/11/27 07:47:04;;;;;;;13.07;5.57;;;;;;;-0.04;100.00;98092.66;4959572;28;20122;-66
2021/11/27 07:49:34;;;;;;;12.35;5.55;;;;;;;-0.02;100.00;98090.69;4943674;28;20380;-66
2021/11/27 07:52:03;;;;;;;15.48;5.85;;;;;;;0.02;100.00;98096.44;4961277;28;20313;-66
2021/11/27 07:54:31;;;;;;;13.93;6.00;;;;;;;0.05;100.00;98098.75;4960063;28;20524;-66
2021/11/27 07:57:01;;;;;;;14.45;4.68;;;;;;;0.07;100.00;98099.41;4957665;28;20035;-66
2021/11/27 07:59:33;;;;;;;10.35;5.53;;;;;;;0.17;100.00;98100.06;4953386;28;20050;-68
2021/11/27 08:02:03;;;;;;;14.85;6.47;;;;;;;0.26;100.00;98111.41;4954265;28;20047;-66
2021/11/27 08:04:31;;;;;;;15.65;6.18;;;;;;;0.30;100.00;98115.34;4957017;28;20049;-66
2021/11/27 08:06:59;;;;;;;10.38;6.20;;;;;;;0.34;100.00;98119.28;4956376;28;20040;-65
2021/11/27 08:09:27;;;;;;;9.52;4.93;;;;;;;0.42;100.00;98126.31;4949054;28;20248;-66
2021/11/27 08:11:55;;;;;;;10.75;5.03;;;;;;;0.46;100.00;98132.91;4957971;28;20043;-65
2021/11/27 08:14:27;;;;;;;11.10;5.32;;;;;;;0.49;100.00;98139.63;4958669;28;20046;-65
2021/11/27 08:16:55;;;;;;;12.15;5.70;;;;;;;0.51;100.00;98145.53;4959556;28;20053;-65
2021/11/27 08:19:24;;;;;;;9.68;4.70;;;;;;;0.55;100.00;98151.28;4951928;28;20054;-65
2021/11/27 08:21:52;;;;;;;10.27;5.43;;;;;;;0.54;100.00;98157.53;4960994;28;20478;-64
2021/11/27 08:24:20;;;;;;;14.02;5.90;;;;;;;0.64;100.00;98158.19;4957992;28;20056;-65
2021/11/27 08:26:48;;;;;;;14.90;5.97;;;;;;;0.66;100.00;98164.91;4955778;28;20039;-64
2021/11/27 08:29:16;;;;;;;9.82;4.85;;;;;;;0.67;100.00;98169.19;4943031;28;20105;-65
2021/11/27 08:31:44;;;;;;;12.35;6.25;;;;;;;0.67;100.00;98174.44;4952378;28;20055;-64
2021/11/27 08:34:12;;;;;;;10.07;4.90;;;;;;;0.70;100.00;98178.53;4956462;28;20051;-64
2021/11/27 08:36:41;;;;;;;11.35;6.50;;;;;;;0.73;100.00;98185.28;4952760;28;20043;-64
2021/11/27 08:39:09;;;;;;;16.95;6.95;;;;;;;0.69;100.00;98190.03;4954469;28;20347;-65
2021/11/27 08:41:38;;;;;;;9.90;5.13;;;;;;;0.71;100.00;98189.88;4954148;28;20082;-64
2021/11/27 08:44:06;;;;;;;11.20;6.13;;;;;;;0.67;100.00;98194.63;4954821;28;20043;-65
2021/11/27 08:46:34;;;;;;;12.93;6.13;;;;;;;0.67;100.00;98198.06;4958605;28;20057;-65
2021/11/27 08:49:02;;;;;;;13.60;5.05;;;;;;;0.72;100.00;98210.72;4943608;28;20317;-65
2021/11/27 08:51:37;;;;;;;16.92;5.93;;;;;;;0.75;100.00;98209.56;4957243;28;20047;-65
2021/11/27 08:54:06;;;;;;;15.75;7.65;;;;;;;0.85;100.00;98212.84;4958930;28;20047;-65
2021/11/27 08:56:38;;;;;;;13.60;8.13;;;;;;;0.88;100.00;98223.06;4957675;28;20151;-66
2021/11/27 08:59:06;;;;;;;12.07;6.28;;;;;;;0.94;100.00;98217.13;4952936;28;20051;-65
2021/11/27 09:01:34;;;;;;;16.33;6.18;;;;;;;0.96;100.00;98220.41;4957626;28;20043;-65
2021/11/27 09:04:02;;;;;;;23.48;7.75;;;;;;;0.97;100.00;98223.88;4959261;28;20074;-65
2021/11/27 09:06:30;;;;;;;24.83;9.52;;;;;;;1.00;100.00;98231.41;4961754;28;20144;-65
2021/11/27 09:08:58;;;;;;;17.35;6.57;;;;;;;1.01;100.00;98230.44;4946201;28;20382;-65
2021/11/27 09:11:29;;;;;;;11.68;7.50;;;;;;;1.08;100.00;98235.84;4963331;28;20058;-65
2021/11/27 09:13:57;;;;;;;16.00;6.47;;;;;;;1.15;100.00;98240.28;4959445;28;20245;-64
2021/11/27 09:16:25;;;;;;;14.45;8.30;;;;;;;1.16;100.00;98241.09;4957884;28;20042;-65
2021/11/27 09:19:02;;;;;;;18.08;7.20;;;;;;;1.23;100.00;98241.25;4956634;28;20043;-65
2021/11/27 09:21:30;;;;;;;19.73;8.10;;;;;;;1.29;100.00;98243.22;4959321;28;20427;-65
2021/11/27 09:24:00;;;;;;;20.08;7.53;;;;;;;1.34;100.00;98252.25;4963362;28;20114;-65
2021/11/27 09:26:29;;;;;;;26.17;9.98;;;;;;;1.45;100.00;98247.66;4959528;28;20051;-65
2021/11/27 09:28:57;;;;;;;35.55;12.15;;;;;;;1.51;100.00;98254.84;4948522;28;20234;-64
2021/11/27 09:31:25;;;;;;;27.85;12.68;;;;;;;1.55;100.00;98264.06;4962098;28;20043;-65
2021/11/27 09:33:53;;;;;;;21.48;7.55;;;;;;;1.65;100.00;98266.50;4958514;28;20042;-65
2021/11/27 09:36:22;;;;;;;21.05;9.48;;;;;;;1.75;100.00;98274.22;4961204;28;20069;-64
2021/11/27 09:38:51;;;;;;;17.63;6.88;;;;;;;1.73;100.00;98277.03;4951619;28;20042;-65
2021/11/27 09:41:23;;;;;;;16.38;6.88;;;;;;;1.85;100.00;98282.72;4963700;28;20050;-64
2021/11/27 09:43:54;;;;;;;15.93;6.40;;;;;;;1.85;100.00;98277.47;4958544;28;20424;-65
2021/11/27 09:46:23;;;;;;;14.10;5.88;;;;;;;1.93;100.00;98285.34;4958881;28;20443;-65
2021/11/27 09:48:52;;;;;;;14.98;7.00;;;;;;;2.03;100.00;98272.00;4956500;28;20062;-65
2021/11/27 09:51:21;;;;;;;11.90;6.60;;;;;;;2.08;100.00;98287.28;4960709;28;20054;-64
2021/11/27 09:53:50;;;;;;;17.38;7.40;;;;;;;2.24;100.00;98285.38;4959554;28;20062;-65
2021/11/27 09:56:19;;;;;;;12.27;6.35;;;;;;;2.29;100.00;98282.22;4962106;28;20192;-64
2021/11/27 09:58:47;;;;;;;20.05;9.02;;;;;;;2.37;100.00;98284.03;4951712;28;20331;-65
2021/11/27 10:01:20;;;;;;;36.70;15.18;;;;;;;2.45;100.00;98291.06;4961447;28;20044;-64
2021/11/27 10:03:59;;;;;;;16.80;7.78;;;;;;;2.45;100.00;98294.50;4960314;28;20043;-64
2021/11/27 10:06:29;;;;;;;12.27;6.32;;;;;;;2.45;100.00;98306.84;4961477;28;20057;-64
2021/11/27 10:08:58;;;;;;;12.43;5.97;;;;;;;2.56;100.00;98311.75;4952575;28;20058;-64
2021/11/27 10:11:25;;;;;;;16.08;7.80;;;;;;;2.84;100.00;98321.81;4959285;28;20050;-64
2021/11/27 10:13:54;;;;;;;14.75;7.65;;;;;;;2.92;100.00;98321.72;4960411;28;20042;-64
2021/11/27 10:16:23;;;;;;;13.30;6.85;;;;;;;2.89;100.00;98324.72;4960081;28;20042;-64
2021/11/27 10:19:06;;;;;;;15.23;6.72;;;;;;;2.82;100.00;98326.41;4948309;28;20439;-64
2021/11/27 10:21:34;;;;;;;11.10;5.88;;;;;;;3.06;100.00;98328.91;4961228;28;20051;-64
2021/11/27 10:24:16;;;;;;;14.57;6.95;;;;;;;3.04;100.00;98336.16;4960414;28;20327;-64
2021/11/27 10:26:45;;;;;;;12.75;5.95;;;;;;;3.05;100.00;98340.44;4961018;28;20453;-64
2021/11/27 10:29:15;;;;;;;13.00;6.82;;;;;;;2.87;100.00;98334.63;4948731;28;20062;-64
2021/11/27 10:31:47;;;;;;;13.98;7.25;;;;;;;2.75;100.00;98337.66;4960619;28;20054;-64
2021/11/27 10:34:17;;;;;;;15.95;6.78;;;;;;;2.71;100.00;98338.19;4962868;28;20379;-64
2021/11/27 10:37:04;;;;;;;11.45;4.88;;;;;;;2.41;100.00;98341.47;4958580;28;20368;-64
2021/11/27 10:39:32;;;;;;;18.67;6.35;;;;;;;2.63;100.00;98344.31;4952721;28;20355;-64
2021/11/27 10:42:02;;;;;;;8.77;4.75;;;;;;;2.69;100.00;98348.88;4957027;28;20058;-65
2021/11/27 10:44:33;;;;;;;10.02;4.97;;;;;;;2.69;100.00;98351.53;4957305;28;20047;-64
2021/11/27 10:47:13;;;;;;;8.63;4.55;;;;;;;2.95;100.00;98350.41;4960327;28;20360;-65
2021/11/27 10:49:42;;;;;;;12.02;4.70;;;;;;;3.03;100.00;98357.44;4951805;28;20051;-64
2021/11/27 10:52:11;;;;;;;17.88;7.00;;;;;;;2.96;100.00;98362.56;4957040;28;20058;-65
2021/11/27 10:54:44;;;;;;;11.15;5.55;;;;;;;2.95;100.00;98382.06;4960623;28;20375;-65
2021/11/27 10:57:28;;;;;;;11.10;4.72;;;;;;;2.95;100.00;98376.78;4963362;28;20113;-65
2021/11/27 10:59:57;;;;;;;8.57;3.97;;;;;;;2.99;100.00;98367.53;4953342;28;20038;-65
2021/11/27 11:02:27;;;;;;;10.85;4.70;;;;;;;2.84;100.00;98371.91;4958237;28;20046;-64
2021/11/27 11:05:04;;;;;;;9.30;4.72;;;;;;;2.77;100.00;98363.03;4956282;28;20315;-65
2021/11/27 11:07:32;;;;;;;9.57;5.47;;;;;;;2.93;100.00;98362.94;4957897;28;20110;-65
2021/11/27 11:10:12;;;;;;;8.85;4.28;;;;;;;3.19;100.00;98367.88;4945277;28;20066;-65
2021/11/27 11:12:43;;;;;;;11.00;4.93;;;;;;;3.39;100.00;98364.78;4954635;28;20043;-65
2021/11/27 11:15:20;;;;;;;10.88;4.00;;;;;;;3.04;100.00;98375.72;4958295;28;20054;-65
2021/11/27 11:17:51;;;;;;;10.73;3.97;;;;;;;3.48;100.00;98381.38;4958387;28;20043;-65
2021/11/27 11:20:26;;;;;;;7.80;4.75;;;;;;;3.60;100.00;98374.66;4945488;28;20059;-65
2021/11/27 11:22:59;;;;;;;8.07;4.15;;;;;;;3.42;100.00;98375.78;4961897;28;20066;-65
2021/11/27 11:25:29;;;;;;;8.40;4.03;;;;;;;3.43;100.00;98373.97;4962277;28;20067;-65
2021/11/27 11:27:58;;;;;;;9.18;3.67;;;;;;;3.49;100.00;98370.63;4962756;28;20125;-65
2021/11/27 11:30:39;;;;;;;7.30;4.47;;;;;;;3.78;100.00;98367.25;4958991;28;20074;-65